Time;durP1;ratioP1;P1;durP2;ratioP2;P2;SDS_P1;SDS_P2;PMS_P1;PMS_P2;Temp;Humidity;BMP_temperature;BMP_pressure;BME280_temperature;BME280_humidity;BME280_pressure;Samples;Min_cycle;Max_cycle;Signal;HPM_P1;HPM_P2
2021/04/08 00:02:15;;;;;;;8.23;1.57;;;;;;;1.68;81.45;102388.78;5134262;27;20090;-41
2021/04/08 00:04:41;;;;;;;8.70;2.47;;;;;;;1.66;81.98;102380.09;5134637;27;20023;-41
2021/04/08 00:07:06;;;;;;;6.27;1.40;;;;;;;1.67;82.05;102386.25;5135117;27;20023;-41
2021/04/08 00:09:31;;;;;;;5.30;1.67;;;;;;;1.65;82.34;102381.03;5134657;27;20366;-41
2021/04/08 00:11:58;;;;;;;4.50;1.17;;;;;;;1.62;82.08;102384.00;5134703;27;20043;-41
2021/04/08 00:14:24;;;;;;;8.93;1.58;;;;;;;1.63;82.53;102382.16;5135205;27;20039;-40
2021/04/08 00:16:49;;;;;;;;;;;;;;;1.68;82.05;102391.44;5134489;27;20034;-41
2021/04/08 00:19:15;;;;;;;4.68;1.40;;;;;;;1.64;81.81;102383.84;5134383;27;19918;-41
2021/04/08 00:21:40;;;;;;;7.40;2.00;;;;;;;1.62;81.85;102391.16;5133955;27;20067;-41
2021/04/08 00:24:06;;;;;;;8.10;1.83;;;;;;;1.60;82.60;102391.28;5134796;28;20025;-40
2021/04/08 00:26:31;;;;;;;7.35;2.40;;;;;;;1.59;82.75;102392.25;5134674;28;20031;-41
2021/04/08 00:28:57;;;;;;;4.13;1.43;;;;;;;1.59;82.48;102402.91;5134361;28;20489;-41
2021/04/08 00:31:22;;;;;;;6.63;2.17;;;;;;;1.58;82.46;102395.91;5134591;28;20420;-41
2021/04/08 00:33:47;;;;;;;4.97;1.60;;;;;;;1.59;81.99;102396.75;5134003;28;20031;-41
2021/04/08 00:36:13;;;;;;;6.40;1.70;;;;;;;1.57;82.61;102396.88;5134320;28;20058;-41
2021/04/08 00:38:38;;;;;;;4.95;1.73;;;;;;;1.53;82.05;102398.97;5133993;28;20031;-41
2021/04/08 00:41:04;;;;;;;5.57;1.60;;;;;;;1.49;82.40;102400.22;5134504;28;20026;-41
2021/04/08 00:43:29;;;;;;;7.80;1.53;;;;;;;1.50;82.17;102406.38;5134376;28;20023;-41
2021/04/08 00:45:55;;;;;;;6.00;2.00;;;;;;;1.50;82.24;102406.38;5134984;28;20355;-41
2021/04/08 00:48:20;;;;;;;9.93;1.63;;;;;;;1.50;82.35;102406.38;5134369;28;20455;-41
2021/04/08 00:50:45;;;;;;;5.67;1.40;;;;;;;1.51;82.86;102408.94;5134180;28;20351;-41
2021/04/08 00:53:18;;;;;;;8.23;1.90;;;;;;;1.51;82.32;102414.28;5135201;27;20042;-41
2021/04/08 00:55:46;;;;;;;8.10;1.55;;;;;;;1.55;82.53;102409.50;5138462;27;20151;-41
2021/04/08 00:58:13;;;;;;;6.20;1.45;;;;;;;1.56;81.91;102408.50;5139138;27;20332;-41
2021/04/08 01:00:41;;;;;;;6.50;1.30;;;;;;;1.58;82.15;102406.56;5138882;27;20401;-41
2021/04/08 01:03:07;;;;;;;6.95;1.35;;;;;;;1.63;81.23;102419.50;5138177;27;20034;-41
2021/04/08 01:05:33;;;;;;;9.55;1.67;;;;;;;1.63;81.22;102420.34;5138818;27;20027;-41
2021/04/08 01:07:59;;;;;;;5.25;1.13;;;;;;;1.65;81.40;102407.72;5137921;27;20031;-41
2021/04/08 01:10:25;;;;;;;;;;;;;;;1.73;80.85;102417.72;5138638;27;20126;-41
2021/04/08 01:12:52;;;;;;;3.65;1.00;;;;;;;1.65;81.38;102404.19;5137521;27;20010;-41
2021/04/08 01:15:18;;;;;;;7.35;1.40;;;;;;;1.67;80.79;102411.09;5137981;27;20401;-41
2021/04/08 01:17:48;;;;;;;6.22;1.38;;;;;;;1.71;80.84;102411.69;5137397;27;20030;-41
2021/04/08 01:20:41;;;;;;;6.45;1.42;;;;;;;1.73;81.13;102423.06;5138223;27;20038;-41
2021/04/08 01:23:44;;;;;;;8.10;1.30;;;;;;;1.71;80.83;102420.53;5137853;27;20019;-42
2021/04/08 01:26:31;;;;;;;5.13;1.40;;;;;;;1.71;80.84;102422.34;5137937;27;20502;-41
2021/04/08 01:29:14;;;;;;;6.57;1.67;;;;;;;1.67;80.92;102415.59;5138313;27;20316;-41
2021/04/08 01:31:42;;;;;;;5.97;1.48;;;;;;;1.67;81.05;102419.09;5138027;27;20110;-41
2021/04/08 01:34:11;;;;;;;5.88;1.42;;;;;;;1.64;80.64;102418.50;5137319;27;20027;-41
2021/04/08 01:36:40;;;;;;;8.18;1.80;;;;;;;1.63;81.20;102416.84;5136242;27;20122;-41
2021/04/08 01:39:09;;;;;;;9.10;1.65;;;;;;;1.58;80.93;102414.56;5136734;27;20396;-41
2021/04/08 01:41:37;;;;;;;6.95;1.50;;;;;;;1.59;80.77;102421.59;5137475;27;20383;-41
2021/04/08 01:44:04;;;;;;;9.43;1.75;;;;;;;1.56;81.67;102416.50;5137367;27;20031;-41
2021/04/08 01:46:32;;;;;;;6.60;1.40;;;;;;;1.55;80.73;102422.81;5137482;27;20027;-42
2021/04/08 01:49:00;;;;;;;8.32;1.73;;;;;;;1.57;81.30;102428.03;5137060;27;20069;-41
2021/04/08 01:51:28;;;;;;;8.15;1.55;;;;;;;1.57;81.44;102422.72;5137029;27;20023;-41
2021/04/08 01:53:59;;;;;;;7.13;1.65;;;;;;;1.60;81.27;102425.09;5136893;27;20463;-41
2021/04/08 01:56:31;;;;;;;10.80;2.45;;;;;;;1.58;81.30;102425.22;5137667;27;20375;-41
2021/04/08 01:58:59;;;;;;;8.35;1.58;;;;;;;1.62;81.64;102418.66;5137156;27;20387;-41
2021/04/08 02:01:25;;;;;;;9.73;1.98;;;;;;;1.58;81.62;102416.41;5136914;27;20072;-41
2021/04/08 02:03:51;;;;;;;4.47;1.75;;;;;;;1.55;81.32;102418.34;5136178;27;20117;-41
2021/04/08 02:06:18;;;;;;;;;;;;;;;1.63;81.46;102420.34;5136271;27;20023;-41
2021/04/08 02:08:46;;;;;;;5.82;1.42;;;;;;;1.56;80.93;102419.19;5136738;27;20387;-41
2021/04/08 02:11:13;;;;;;;5.70;1.77;;;;;;;1.57;81.49;102425.38;5137192;27;20043;-41
2021/04/08 02:13:39;;;;;;;;;;;;;;;1.62;81.58;102431.16;5136741;27;20368;-42
2021/04/08 02:16:07;;;;;;;5.05;1.90;;;;;;;1.53;81.28;102436.31;5137137;27;19915;-41
2021/04/08 02:18:35;;;;;;;6.50;2.30;;;;;;;1.58;81.92;102437.72;5136972;27;20019;-41
2021/04/08 02:21:02;;;;;;;8.15;1.95;;;;;;;1.55;81.85;102436.16;5136696;27;20489;-41
2021/04/08 02:23:29;;;;;;;;;;;;;;;1.62;81.23;102440.00;5136448;27;20493;-41
2021/04/08 02:25:55;;;;;;;;;;;;;;;1.64;80.71;102434.53;5137460;27;20002;-41
2021/04/08 02:28:23;;;;;;;5.82;2.08;;;;;;;1.58;81.34;102435.06;5136985;27;19946;-41
2021/04/08 02:30:50;;;;;;;4.25;1.45;;;;;;;1.61;81.22;102434.78;5137229;27;20055;-42
2021/04/08 02:33:19;;;;;;;8.05;2.40;;;;;;;1.61;81.95;102438.31;5136060;27;20471;-41
2021/04/08 02:35:44;;;;;;;7.10;2.28;;;;;;;1.63;81.98;102433.69;5136799;27;20031;-41
2021/04/08 02:38:09;;;;;;;5.07;1.70;;;;;;;1.70;82.33;102425.97;5136504;27;20447;-41
2021/04/08 02:40:35;;;;;;;6.87;2.50;;;;;;;1.69;81.77;102429.63;5136499;27;20499;-41
2021/04/08 02:43:01;;;;;;;4.63;1.67;;;;;;;1.76;82.19;102426.31;5136123;27;20031;-41
2021/04/08 02:45:26;;;;;;;5.97;2.20;;;;;;;1.74;81.71;102427.41;5136486;27;20481;-41
2021/04/08 02:47:51;;;;;;;6.07;2.03;;;;;;;1.73;81.41;102421.22;5135584;27;20114;-41
2021/04/08 02:50:17;;;;;;;5.27;2.23;;;;;;;1.67;81.24;102419.09;5136159;27;20130;-41
2021/04/08 02:52:57;;;;;;;3.50;1.90;;;;;;;1.67;81.97;102420.94;5135764;27;20023;-41
2021/04/08 02:55:29;;;;;;;10.93;2.75;;;;;;;1.62;81.73;102418.66;5135751;27;20031;-41
2021/04/08 02:58:03;;;;;;;7.05;2.03;;;;;;;1.68;81.67;102411.94;5135719;27;20114;-41
2021/04/08 03:00:39;;;;;;;6.28;2.20;;;;;;;1.66;81.45;102414.75;5135346;27;20467;-41
2021/04/08 03:03:06;;;;;;;7.30;2.47;;;;;;;1.71;81.46;102415.19;5135609;27;20083;-42
2021/04/08 03:05:37;;;;;;;6.95;2.53;;;;;;;1.65;82.03;102407.72;5135645;27;20023;-42
2021/04/08 03:08:06;;;;;;;6.10;2.10;;;;;;;1.66;81.57;102414.75;5135811;27;20019;-41
2021/04/08 03:10:32;;;;;;;7.60;2.22;;;;;;;1.64;81.68;102414.03;5135956;27;20051;-41
2021/04/08 03:13:00;;;;;;;9.27;2.70;;;;;;;1.64;81.50;102410.53;5135166;27;20047;-41
2021/04/08 03:15:28;;;;;;;9.57;2.78;;;;;;;1.61;82.05;102416.09;5135062;27;20046;-41
2021/04/08 03:17:55;;;;;;;5.43;2.03;;;;;;;1.61;81.46;102416.97;5134978;27;20023;-41
2021/04/08 03:20:21;;;;;;;6.70;2.30;;;;;;;1.61;82.40;102411.66;5135218;27;20027;-41
2021/04/08 03:22:49;;;;;;;7.37;1.97;;;;;;;1.64;81.72;102414.03;5135117;27;20364;-41
2021/04/08 03:25:16;;;;;;;8.80;2.83;;;;;;;1.66;81.88;102420.09;5135141;27;20348;-41
2021/04/08 03:27:42;;;;;;;6.50;2.33;;;;;;;1.67;81.80;102410.25;5135192;27;20027;-41
2021/04/08 03:30:12;;;;;;;8.40;2.58;;;;;;;1.66;82.46;102414.75;5135155;27;20023;-42
2021/04/08 03:32:38;;;;;;;4.97;2.50;;;;;;;1.64;82.17;102406.03;5135014;27;20203;-41
2021/04/08 03:35:07;;;;;;;7.10;2.88;;;;;;;1.75;82.83;102410.41;5135573;27;20106;-41
2021/04/08 03:37:32;;;;;;;9.45;3.30;;;;;;;1.59;82.25;102402.06;5134900;27;20463;-41
2021/04/08 03:39:58;;;;;;;9.73;2.78;;;;;;;1.57;82.28;102404.03;5135188;27;20064;-41
2021/04/08 03:42:24;;;;;;;7.30;2.73;;;;;;;1.57;82.61;102399.56;5134554;27;20081;-41
2021/04/08 03:44:51;;;;;;;9.60;2.45;;;;;;;1.54;82.05;102407.81;5135103;27;20417;-41
2021/04/08 03:47:16;;;;;;;;;;;;;;;1.63;81.71;102401.69;5135376;27;20394;-41
2021/04/08 03:49:43;;;;;;;7.80;2.75;;;;;;;1.56;82.08;102400.50;5134701;27;19907;-41
2021/04/08 03:52:11;;;;;;;6.97;2.60;;;;;;;1.51;81.96;102406.28;5134342;27;20031;-41
2021/04/08 03:54:37;;;;;;;9.02;2.83;;;;;;;1.50;82.71;102407.22;5135158;27;20364;-41
2021/04/08 03:57:05;;;;;;;;;;;;;;;1.59;81.82;102404.75;5135079;27;20028;-41
2021/04/08 03:59:30;;;;;;;;;;;;;;;1.55;82.12;102409.50;5134761;27;19949;-41
2021/04/08 04:01:57;;;;;;;9.38;2.95;;;;;;;1.42;81.64;102407.06;5134234;27;19911;-42
2021/04/08 04:04:23;;;;;;;;;;;;;;;1.51;81.81;102408.94;5135305;27;20023;-41
2021/04/08 04:06:52;;;;;;;8.13;2.40;;;;;;;1.43;81.85;102410.56;5134822;27;19930;-41
2021/04/08 04:09:18;;;;;;;9.48;2.83;;;;;;;1.43;82.21;102413.25;5134969;27;20034;-41
2021/04/08 04:11:48;;;;;;;6.55;2.92;;;;;;;1.30;82.04;102402.78;5134945;27;20404;-41
2021/04/08 04:14:21;;;;;;;8.98;2.65;;;;;;;1.28;81.58;102404.75;5134353;27;20474;-41
2021/04/08 04:16:47;;;;;;;10.43;3.00;;;;;;;1.22;81.93;102407.91;5134926;27;20219;-40
2021/04/08 04:19:13;;;;;;;6.97;3.22;;;;;;;1.19;81.86;102409.03;5134656;27;20038;-42
2021/04/08 04:21:39;;;;;;;9.60;3.23;;;;;;;1.19;81.76;102405.53;5134063;27;20394;-42
2021/04/08 04:24:06;;;;;;;11.65;2.83;;;;;;;1.23;81.10;102407.81;5134501;27;20038;-42
2021/04/08 04:26:31;;;;;;;8.43;3.03;;;;;;;1.21;81.74;102408.91;5134257;27;20039;-42
2021/04/08 04:28:56;;;;;;;7.43;2.60;;;;;;;1.21;81.66;102415.06;5133557;27;20027;-42
2021/04/08 04:31:22;;;;;;;9.00;2.47;;;;;;;1.20;81.12;102409.88;5133989;28;20255;-42
2021/04/08 04:33:47;;;;;;;9.37;2.83;;;;;;;1.17;80.31;102404.81;5134677;28;20463;-42
2021/04/08 04:36:13;;;;;;;7.00;2.83;;;;;;;1.17;80.51;102408.34;5134193;28;20027;-42
2021/04/08 04:38:38;;;;;;;8.35;2.60;;;;;;;1.20;80.81;102407.22;5134653;28;20031;-42
2021/04/08 04:41:04;;;;;;;11.67;2.90;;;;;;;1.20;80.46;102415.22;5134445;27;20454;-42
2021/04/08 04:43:29;;;;;;;6.70;2.40;;;;;;;1.21;79.29;102417.72;5134187;28;20428;-42
2021/04/08 04:45:54;;;;;;;7.20;2.53;;;;;;;1.18;78.29;102415.34;5134171;28;20394;-42
2021/04/08 04:48:20;;;;;;;7.93;2.40;;;;;;;1.17;78.88;102411.00;5134098;28;20091;-42
2021/04/08 04:50:45;;;;;;;9.83;2.50;;;;;;;1.18;78.98;102418.00;5132534;28;20035;-42
2021/04/08 04:53:10;;;;;;;12.20;2.80;;;;;;;1.22;79.00;102422.13;5134613;28;20039;-42
2021/04/08 04:55:36;;;;;;;13.73;3.47;;;;;;;1.23;78.93;102421.13;5134046;28;20030;-42
2021/04/08 04:58:01;;;;;;;11.60;3.07;;;;;;;1.26;77.72;102420.00;5133671;28;20084;-42
2021/04/08 05:00:27;;;;;;;8.97;2.40;;;;;;;1.27;78.27;102419.06;5134282;28;20038;-42
2021/04/08 05:02:52;;;;;;;6.77;2.77;;;;;;;1.27;78.32;102424.38;5133461;28;20080;-42
2021/04/08 05:05:17;;;;;;;6.23;2.20;;;;;;;1.28;77.80;102424.25;5134407;28;20024;-42
2021/04/08 05:07:43;;;;;;;7.50;2.30;;;;;;;1.27;77.96;102427.06;5132503;28;20100;-42
2021/04/08 05:10:10;;;;;;;7.82;2.22;;;;;;;1.31;77.61;102430.28;5134609;28;20056;-42
2021/04/08 05:12:35;;;;;;;7.30;1.80;;;;;;;1.29;77.14;102433.91;5134445;28;20484;-42
2021/04/08 05:15:00;;;;;;;5.60;2.07;;;;;;;1.32;77.42;102432.81;5133617;28;20034;-42
2021/04/08 05:17:25;;;;;;;6.70;2.60;;;;;;;1.35;76.59;102429.03;5133828;28;20499;-42
2021/04/08 05:19:51;;;;;;;7.33;2.53;;;;;;;1.34;77.22;102430.88;5134386;28;20029;-42
2021/04/08 05:22:17;;;;;;;6.70;2.35;;;;;;;1.37;77.03;102430.63;5133974;28;20035;-42
2021/04/08 05:24:42;;;;;;;8.07;2.30;;;;;;;1.39;76.83;102433.97;5133687;28;20027;-42
2021/04/08 05:27:08;;;;;;;6.50;2.17;;;;;;;1.42;76.71;102438.22;5133710;28;20106;-42
2021/04/08 05:29:34;;;;;;;6.10;2.50;;;;;;;1.42;76.09;102439.06;5133819;28;20027;-42
2021/04/08 05:31:59;;;;;;;6.22;2.45;;;;;;;1.47;76.13;102433.31;5133307;28;20107;-42
2021/04/08 05:34:24;;;;;;;6.40;2.70;;;;;;;1.46;75.93;102440.44;5133927;28;20118;-42
2021/04/08 05:36:50;;;;;;;4.90;2.07;;;;;;;1.47;75.84;102436.84;5133871;28;20038;-40
2021/04/08 05:39:15;;;;;;;5.97;2.40;;;;;;;1.47;75.72;102436.00;5135341;27;20023;-41
2021/04/08 05:41:40;;;;;;;5.97;2.20;;;;;;;1.51;75.96;102432.06;5137290;27;20034;-42
2021/04/08 05:44:06;;;;;;;7.57;2.20;;;;;;;1.52;75.44;102428.44;5137123;27;20488;-42
2021/04/08 05:46:31;;;;;;;8.23;2.53;;;;;;;1.51;74.65;102437.38;5137145;27;20126;-42
2021/04/08 05:48:57;;;;;;;7.93;2.63;;;;;;;1.49;74.80;102439.34;5137088;27;20071;-42
2021/04/08 05:51:22;;;;;;;4.97;2.23;;;;;;;1.50;74.82;102433.88;5137612;27;20020;-42
2021/04/08 05:53:48;;;;;;;5.47;2.27;;;;;;;1.48;74.68;102440.34;5136738;27;20030;-41
2021/04/08 05:56:13;;;;;;;4.30;2.08;;;;;;;1.52;74.96;102450.63;5136652;27;20511;-41
2021/04/08 05:58:39;;;;;;;10.07;2.53;;;;;;;1.59;75.02;102442.91;5136600;27;20054;-41
2021/04/08 06:01:05;;;;;;;8.93;2.93;;;;;;;1.67;74.65;102452.94;5137543;27;20054;-41
2021/04/08 06:03:30;;;;;;;9.50;2.55;;;;;;;1.66;73.92;102449.41;5136811;27;20375;-41
2021/04/08 06:05:56;;;;;;;7.03;2.47;;;;;;;1.71;73.94;102455.19;5137200;27;20089;-41
2021/04/08 06:08:21;;;;;;;7.20;2.40;;;;;;;1.76;74.30;102454.81;5137350;27;20023;-41
2021/04/08 06:10:47;;;;;;;6.50;2.80;;;;;;;1.81;74.18;102447.25;5136796;27;20054;-41
2021/04/08 06:13:12;;;;;;;10.43;3.00;;;;;;;1.84;73.29;102451.44;5136485;27;20043;-41
2021/04/08 06:15:38;;;;;;;9.18;3.63;;;;;;;1.83;74.03;102447.09;5137433;27;20159;-41
2021/04/08 06:18:04;;;;;;;5.22;2.50;;;;;;;1.89;73.50;102451.88;5136631;27;20034;-41
2021/04/08 06:20:29;;;;;;;5.13;2.53;;;;;;;1.85;73.52;102456.63;5136900;27;20019;-41
2021/04/08 06:22:58;;;;;;;6.60;3.17;;;;;;;1.84;73.51;102454.09;5135135;27;20428;-41
2021/04/08 06:25:24;;;;;;;7.60;2.83;;;;;;;1.82;73.43;102453.41;5136239;27;20505;-41
2021/04/08 06:27:50;;;;;;;9.10;2.92;;;;;;;1.86;73.18;102458.34;5136379;27;20058;-41
2021/04/08 06:30:16;;;;;;;6.07;3.08;;;;;;;2.01;72.05;102457.00;5136752;27;20059;-41
2021/04/08 06:32:42;;;;;;;;;;;;;;;2.18;71.84;102471.50;5136808;27;20039;-41
2021/04/08 06:35:08;;;;;;;10.77;3.10;;;;;;;2.29;71.47;102459.84;5136130;27;19965;-41
2021/04/08 06:37:34;;;;;;;10.55;3.67;;;;;;;2.42;71.62;102460.47;5135875;27;20058;-41
2021/04/08 06:39:59;;;;;;;9.53;3.23;;;;;;;2.53;70.87;102462.16;5137038;27;20065;-41
2021/04/08 06:42:25;;;;;;;7.27;3.03;;;;;;;2.62;69.79;102455.97;5135882;27;20463;-41
2021/04/08 06:44:52;;;;;;;10.60;3.17;;;;;;;2.79;70.53;102468.66;5136494;27;20495;-41
2021/04/08 06:47:58;;;;;;;7.80;3.45;;;;;;;2.96;70.31;102475.09;5136006;27;20031;-41
2021/04/08 06:50:27;;;;;;;7.95;3.33;;;;;;;3.18;69.28;102473.16;5135856;27;20478;-41
2021/04/08 06:52:53;;;;;;;5.63;3.33;;;;;;;3.31;68.26;102466.47;5136044;27;20035;-41
2021/04/08 06:55:20;;;;;;;9.00;3.07;;;;;;;3.47;68.23;102473.94;5136897;27;20046;-42
2021/04/08 06:57:47;;;;;;;9.88;3.05;;;;;;;3.61;68.66;102470.78;5135982;27;20458;-41
2021/04/08 07:00:14;;;;;;;7.75;3.00;;;;;;;3.70;66.82;102482.44;5134930;27;20351;-41
2021/04/08 07:02:40;;;;;;;10.68;3.30;;;;;;;3.77;65.95;102472.84;5135657;27;20071;-41
2021/04/08 07:05:07;;;;;;;8.20;3.03;;;;;;;3.86;67.16;102474.66;5136025;27;20527;-41
2021/04/08 07:07:33;;;;;;;9.52;2.95;;;;;;;3.94;65.05;102478.41;5135259;27;20023;-41
2021/04/08 07:09:58;;;;;;;6.00;2.83;;;;;;;4.01;64.62;102477.69;5136231;27;20443;-41
2021/04/08 07:12:25;;;;;;;5.43;2.83;;;;;;;4.07;64.34;102477.09;5135242;27;20649;-42
2021/04/08 07:14:52;;;;;;;5.55;2.47;;;;;;;4.24;64.98;102475.44;5135580;27;20023;-41
2021/04/08 07:17:18;;;;;;;7.13;2.60;;;;;;;4.34;64.09;102475.38;5135491;27;20516;-41
2021/04/08 07:19:43;;;;;;;11.20;2.90;;;;;;;4.47;64.56;102483.06;5135728;27;20027;-42
2021/04/08 07:22:09;;;;;;;7.30;2.73;;;;;;;4.52;63.18;102480.78;5135263;27;20043;-42
2021/04/08 07:24:46;;;;;;;7.53;3.00;;;;;;;4.53;62.99;102480.59;5135647;27;20390;-41
2021/04/08 07:27:17;;;;;;;7.85;3.20;;;;;;;4.52;61.85;102483.44;5135502;27;20273;-42
2021/04/08 07:29:57;;;;;;;7.45;3.05;;;;;;;4.51;61.77;102487.13;5134968;27;20038;-41
2021/04/08 07:32:30;;;;;;;7.32;2.90;;;;;;;4.58;62.81;102489.03;5134181;27;20027;-42
2021/04/08 07:35:01;;;;;;;6.85;2.80;;;;;;;4.72;61.22;102492.19;5135107;27;20033;-41
2021/04/08 07:37:32;;;;;;;7.32;2.90;;;;;;;4.75;61.86;102492.75;5134788;27;20475;-42
2021/04/08 07:40:01;;;;;;;8.55;3.58;;;;;;;4.69;61.64;102485.31;5135620;27;20030;-41
2021/04/08 07:42:32;;;;;;;12.43;3.10;;;;;;;4.63;62.33;102484.06;5135135;27;20039;-41
2021/04/08 07:45:00;;;;;;;7.28;2.90;;;;;;;4.60;63.55;102486.22;5135237;27;20023;-42
2021/04/08 07:47:32;;;;;;;6.30;3.35;;;;;;;4.51;61.74;102489.81;5134757;27;20055;-41
2021/04/08 07:50:18;;;;;;;8.35;3.35;;;;;;;4.48;63.64;102487.41;5135445;27;20025;-41
2021/04/08 07:52:48;;;;;;;6.10;3.22;;;;;;;4.37;62.67;102492.00;5134220;27;20039;-41
2021/04/08 07:55:19;;;;;;;8.50;2.90;;;;;;;4.33;62.47;102487.09;5134991;27;20055;-42
2021/04/08 07:58:06;;;;;;;7.00;3.03;;;;;;;4.30;63.15;102487.41;5135377;27;20027;-42
2021/04/08 08:00:35;;;;;;;7.75;3.00;;;;;;;4.24;62.72;102483.47;5135312;27;20076;-41
2021/04/08 08:03:05;;;;;;;6.82;3.75;;;;;;;4.25;63.17;102489.69;5133650;27;20035;-41
2021/04/08 08:05:33;;;;;;;7.10;3.38;;;;;;;4.27;63.83;102483.19;5135128;27;20038;-41
2021/04/08 08:08:10;;;;;;;11.10;3.92;;;;;;;4.38;64.90;102490.16;5135374;27;20031;-41
2021/04/08 08:10:39;;;;;;;8.55;3.30;;;;;;;4.40;62.35;102485.50;5135182;27;20070;-41
2021/04/08 08:13:08;;;;;;;10.82;3.30;;;;;;;4.44;62.72;102491.38;5134768;27;20035;-41
2021/04/08 08:15:34;;;;;;;8.23;3.50;;;;;;;4.51;63.49;102489.81;5135300;27;20362;-41
2021/04/08 08:17:59;;;;;;;5.03;3.25;;;;;;;4.57;62.41;102491.88;5134368;27;20102;-41
2021/04/08 08:20:25;;;;;;;7.20;3.27;;;;;;;4.62;60.60;102492.25;5134710;27;20103;-41
2021/04/08 08:22:52;;;;;;;4.90;3.00;;;;;;;4.67;60.00;102503.38;5132571;27;20107;-41
2021/04/08 08:25:28;;;;;;;8.13;2.90;;;;;;;4.62;59.84;102500.31;5134692;27;20030;-41
2021/04/08 08:27:56;;;;;;;8.10;3.20;;;;;;;4.58;59.30;102501.59;5135163;28;20031;-41
2021/04/08 08:30:24;;;;;;;5.18;2.78;;;;;;;4.57;59.73;102505.28;5134037;28;20035;-41
2021/04/08 08:33:12;;;;;;;7.07;3.30;;;;;;;4.64;60.85;102506.38;5134277;28;20042;-41
2021/04/08 08:35:38;;;;;;;6.43;3.13;;;;;;;4.70;60.14;102513.78;5135080;28;20106;-41
2021/04/08 08:38:17;;;;;;;;;;;;;;;4.79;61.84;102502.16;5134675;28;20024;-41
2021/04/08 08:40:44;;;;;;;5.80;2.90;;;;;;;4.88;60.20;102501.25;5134297;27;19907;-41
2021/04/08 08:43:11;;;;;;;10.23;3.33;;;;;;;4.93;59.01;102505.28;5134130;28;20463;-41
2021/04/08 08:45:38;;;;;;;6.32;3.45;;;;;;;4.95;57.76;102504.16;5134487;28;20383;-41
2021/04/08 08:48:10;;;;;;;6.80;2.88;;;;;;;4.94;57.52;102498.94;5134107;28;20027;-41
2021/04/08 08:50:37;;;;;;;5.82;3.00;;;;;;;5.02;58.07;102504.38;5134163;28;20050;-41
2021/04/08 08:53:04;;;;;;;6.72;3.38;;;;;;;5.04;56.29;102499.72;5134629;28;20371;-41
2021/04/08 08:55:29;;;;;;;9.57;3.50;;;;;;;5.07;55.69;102494.03;5134387;28;20042;-42
2021/04/08 08:57:57;;;;;;;6.47;3.40;;;;;;;5.21;57.83;102493.47;5134046;28;20023;-41
2021/04/08 09:00:24;;;;;;;4.90;2.80;;;;;;;5.28;56.87;102491.88;5134354;28;20024;-41
2021/04/08 09:02:50;;;;;;;7.72;3.25;;;;;;;5.39;58.86;102491.59;5133939;28;20118;-41
2021/04/08 09:05:20;;;;;;;4.93;3.33;;;;;;;5.48;55.77;102492.50;5134316;28;20024;-41
2021/04/08 09:07:48;;;;;;;5.93;2.70;;;;;;;5.55;55.71;102482.81;5134562;27;20053;-41
2021/04/08 09:10:22;;;;;;;8.20;3.03;;;;;;;5.56;54.84;102475.59;5134461;28;20067;-41
2021/04/08 09:12:49;;;;;;;6.18;2.80;;;;;;;5.59;52.63;102481.50;5134497;28;20084;-41
2021/04/08 09:15:14;;;;;;;5.97;3.10;;;;;;;5.59;52.07;102475.31;5137041;27;20110;-42
2021/04/08 09:17:45;;;;;;;4.27;2.80;;;;;;;5.75;53.09;102478.06;5137773;27;20122;-41
2021/04/08 09:20:12;;;;;;;6.45;2.83;;;;;;;5.80;51.86;102482.97;5138376;27;20031;-41
2021/04/08 09:22:56;;;;;;;4.82;2.65;;;;;;;5.85;50.69;102480.63;5137849;27;20034;-41
2021/04/08 09:25:27;;;;;;;4.72;2.85;;;;;;;5.98;52.70;102486.47;5138220;27;20108;-41
2021/04/08 09:27:59;;;;;;;5.78;2.75;;;;;;;6.04;51.06;102479.59;5138106;27;20031;-41
2021/04/08 09:31:20;;;;;;;5.43;2.40;;;;;;;6.09;51.39;102474.56;5138161;27;20128;-41
2021/04/08 09:33:39;;;;;;;9.55;2.78;;;;;;;6.07;49.05;102477.44;5135997;27;20039;-41
2021/04/08 09:36:24;;;;;;;4.47;2.30;;;;;;;6.07;49.09;102479.28;5138239;27;20038;-41
2021/04/08 09:39:09;;;;;;;5.95;2.47;;;;;;;6.16;51.19;102478.31;5137120;27;20039;-41
2021/04/08 09:41:45;;;;;;;8.63;3.10;;;;;;;6.14;47.22;102473.09;5129840;27;20475;-41
2021/04/08 09:44:13;;;;;;;4.63;2.28;;;;;;;6.17;47.44;102478.16;5137567;27;20062;-41
2021/04/08 09:46:41;;;;;;;7.13;3.47;;;;;;;6.20;47.01;102463.56;5137194;27;20038;-41
2021/04/08 09:49:07;;;;;;;6.18;2.90;;;;;;;6.25;46.85;102473.81;5137232;27;20023;-41
2021/04/08 09:51:44;;;;;;;5.72;2.90;;;;;;;6.31;47.31;102474.00;5138006;27;20324;-41
2021/04/08 09:54:18;;;;;;;11.20;3.40;;;;;;;6.39;47.40;102468.66;5137354;27;20031;-41
2021/04/08 09:56:54;;;;;;;6.28;3.08;;;;;;;6.42;46.92;102468.31;5137082;27;20038;-41
2021/04/08 09:59:21;;;;;;;6.32;2.80;;;;;;;6.47;47.14;102470.50;5137343;27;20054;-41
2021/04/08 10:01:47;;;;;;;6.90;3.03;;;;;;;6.48;46.89;102463.28;5137063;27;20034;-41
2021/04/08 10:04:21;;;;;;;8.45;2.95;;;;;;;6.61;48.81;102467.19;5136760;27;20027;-42
2021/04/08 10:06:57;;;;;;;7.78;3.03;;;;;;;6.69;47.48;102469.91;5137188;27;20027;-41
2021/04/08 10:09:23;;;;;;;6.43;2.90;;;;;;;6.68;46.04;102468.19;5137212;27;20034;-41
2021/04/08 10:11:48;;;;;;;5.00;2.93;;;;;;;6.75;46.68;102465.69;5137685;27;20039;-42
2021/04/08 10:14:20;;;;;;;5.23;3.13;;;;;;;6.76;46.35;102453.09;5136769;27;20034;-41
2021/04/08 10:17:04;;;;;;;5.80;3.03;;;;;;;6.83;46.81;102460.34;5136680;27;20026;-41
2021/04/08 10:19:38;;;;;;;5.05;3.20;;;;;;;6.88;47.05;102460.69;5137466;27;20031;-41
2021/04/08 10:22:04;;;;;;;5.65;2.97;;;;;;;6.93;44.32;102463.72;5137071;27;20043;-41
2021/04/08 10:24:38;;;;;;;4.65;3.35;;;;;;;6.99;44.33;102456.81;5137364;27;20175;-41
2021/04/08 10:27:25;;;;;;;5.10;3.20;;;;;;;7.09;44.23;102453.94;5135601;27;20039;-41
2021/04/08 10:29:51;;;;;;;4.07;3.08;;;;;;;7.07;44.29;102450.56;5136991;27;20228;-41
2021/04/08 10:32:38;;;;;;;6.57;3.35;;;;;;;7.18;45.44;102443.03;5137206;27;20035;-41
2021/04/08 10:35:04;;;;;;;6.53;3.95;;;;;;;7.14;43.89;102440.84;5136636;27;20030;-41
2021/04/08 10:37:29;;;;;;;6.22;3.67;;;;;;;7.12;43.25;102437.47;5136085;27;20383;-41
2021/04/08 10:39:54;;;;;;;6.87;3.50;;;;;;;7.18;43.53;102436.81;5136333;27;20375;-42
2021/04/08 10:42:22;;;;;;;5.57;4.00;;;;;;;7.39;44.97;102433.56;5136069;27;20038;-42
2021/04/08 10:44:53;;;;;;;5.43;3.30;;;;;;;7.48;44.00;102444.16;5136947;27;20027;-41
2021/04/08 10:47:21;;;;;;;5.03;3.65;;;;;;;7.48;42.60;102430.69;5136039;27;20097;-41
2021/04/08 10:49:57;;;;;;;6.80;4.13;;;;;;;7.52;43.72;102438.44;5136315;27;20023;-42
2021/04/08 10:52:30;;;;;;;5.25;3.25;;;;;;;7.48;42.11;102444.16;5135966;27;20110;-41
2021/04/08 10:54:57;;;;;;;9.38;3.80;;;;;;;7.29;41.19;102425.69;5135002;27;20427;-41
2021/04/08 10:57:24;;;;;;;7.25;3.75;;;;;;;7.16;42.48;102428.03;5136039;27;20027;-41
2021/04/08 10:59:50;;;;;;;5.30;3.80;;;;;;;7.22;42.72;102438.13;5134472;27;20135;-41
2021/04/08 11:02:22;;;;;;;;;;;;;;;7.41;44.49;102426.97;5136173;27;20099;-41
2021/04/08 11:04:49;;;;;;;5.95;3.33;;;;;;;7.38;42.81;102432.72;5136024;27;19919;-41
2021/04/08 11:07:14;;;;;;;7.03;3.92;;;;;;;7.51;43.57;102432.19;5136112;27;20033;-41
2021/04/08 11:09:39;;;;;;;10.07;3.87;;;;;;;7.49;42.81;102423.44;5135689;27;20463;-42
2021/04/08 11:12:18;;;;;;;5.67;3.70;;;;;;;7.45;43.49;102427.50;5135152;27;20095;-41
2021/04/08 11:14:54;;;;;;;5.40;3.65;;;;;;;7.42;43.12;102417.94;5136073;27;20031;-41
2021/04/08 11:17:21;;;;;;;5.13;3.65;;;;;;;7.34;42.64;102425.16;5135428;27;20023;-41
2021/04/08 11:19:47;;;;;;;6.35;3.85;;;;;;;7.33;43.86;102426.19;5135750;27;20459;-42
2021/04/08 11:22:14;;;;;;;5.53;3.63;;;;;;;7.43;44.44;102419.59;5135544;27;20023;-41
2021/04/08 11:24:41;;;;;;;6.57;3.60;;;;;;;7.49;43.16;102432.34;5135287;27;20080;-41
2021/04/08 11:27:07;;;;;;;6.82;3.70;;;;;;;7.60;42.87;102424.94;5135290;27;20079;-41
2021/04/08 11:29:33;;;;;;;7.43;4.40;;;;;;;7.64;41.88;102415.50;5135298;27;20027;-41
2021/04/08 11:32:03;;;;;;;5.77;3.67;;;;;;;7.68;42.14;102424.91;5135697;27;20404;-41
2021/04/08 11:34:40;;;;;;;5.72;3.90;;;;;;;7.74;42.48;102425.03;5135697;27;20020;-42
2021/04/08 11:37:05;;;;;;;8.05;4.18;;;;;;;7.80;42.67;102420.81;5135136;27;20023;-42
2021/04/08 11:39:35;;;;;;;4.60;3.53;;;;;;;7.93;44.22;102423.78;5135867;27;20114;-42
2021/04/08 11:42:21;;;;;;;6.88;3.80;;;;;;;7.85;43.29;102417.59;5134746;27;20028;-41
2021/04/08 11:44:48;;;;;;;8.05;3.97;;;;;;;7.78;42.71;102419.31;5135392;27;20072;-41